sensor_id;sensor_type;location;lat;lon;timestamp;temperature;humidity
35970;DHT22;22448;51.298;6.430;2023-05-09T00:00:52;15.70;99.90
35970;DHT22;22448;51.298;6.430;2023-05-09T00:03:19;15.70;99.90
35970;DHT22;22448;51.298;6.430;2023-05-09T00:05:46;15.70;99.90
35970;DHT22;22448;51.298;6.430;2023-05-09T00:08:14;15.70;99.90
35970;DHT22;22448;51.298;6.430;2023-05-09T00:10:40;15.70;99.90
35970;DHT22;22448;51.298;6.430;2023-05-09T00:13:08;15.70;99.90
35970;DHT22;22448;51.298;6.430;2023-05-09T00:15:35;15.80;99.90
35970;DHT22;22448;51.298;6.430;2023-05-09T00:18:02;15.70;99.90
35970;DHT22;22448;51.298;6.430;2023-05-09T00:20:29;15.80;99.90
35970;DHT22;22448;51.298;6.430;2023-05-09T00:22:56;15.80;99.90
35970;DHT22;22448;51.298;6.430;2023-05-09T00:25:23;15.70;99.90
35970;DHT22;22448;51.298;6.430;2023-05-09T00:27:50;15.80;99.90
35970;DHT22;22448;51.298;6.430;2023-05-09T00:30:17;15.80;99.90
35970;DHT22;22448;51.298;6.430;2023-05-09T00:32:44;15.80;99.90
35970;DHT22;22448;51.298;6.430;2023-05-09T00:35:11;15.80;99.90
35970;DHT22;22448;51.298;6.430;2023-05-09T00:37:39;15.80;99.90
35970;DHT22;22448;51.298;6.430;2023-05-09T00:40:06;15.80;99.90
35970;DHT22;22448;51.298;6.430;2023-05-09T00:42:35;15.80;99.90
35970;DHT22;22448;51.298;6.430;2023-05-09T00:45:02;15.80;99.90
35970;DHT22;22448;51.298;6.430;2023-05-09T00:47:29;15.80;99.90
35970;DHT22;22448;51.298;6.430;2023-05-09T00:49:57;15.80;99.90
35970;DHT22;22448;51.298;6.430;2023-05-09T00:52:24;15.70;99.90
35970;DHT22;22448;51.298;6.430;2023-05-09T00:54:53;15.70;99.90
35970;DHT22;22448;51.298;6.430;2023-05-09T00:57:23;15.70;99.90
35970;DHT22;22448;51.298;6.430;2023-05-09T00:59:50;15.70;99.90
35970;DHT22;22448;51.298;6.430;2023-05-09T01:02:18;15.70;99.90
35970;DHT22;22448;51.298;6.430;2023-05-09T01:04:45;15.70;99.90
35970;DHT22;22448;51.298;6.430;2023-05-09T01:07:25;15.70;99.90
35970;DHT22;22448;51.298;6.430;2023-05-09T01:10:22;15.70;99.90
35970;DHT22;22448;51.298;6.430;2023-05-09T01:13:03;15.60;99.90
35970;DHT22;22448;51.298;6.430;2023-05-09T01:18:42;15.60;99.90
35970;DHT22;22448;51.298;6.430;2023-05-09T01:21:19;15.70;99.90
35970;DHT22;22448;51.298;6.430;2023-05-09T01:29:31;15.70;99.90
35970;DHT22;22448;51.298;6.430;2023-05-09T01:32:09;15.60;99.90
35970;DHT22;22448;51.298;6.430;2023-05-09T01:34:39;15.60;99.90
35970;DHT22;22448;51.298;6.430;2023-05-09T01:37:07;15.60;99.90
35970;DHT22;22448;51.298;6.430;2023-05-09T01:39:38;15.60;99.90
35970;DHT22;22448;51.298;6.430;2023-05-09T01:42:08;15.60;99.90
35970;DHT22;22448;51.298;6.430;2023-05-09T01:44:38;15.60;99.90
35970;DHT22;22448;51.298;6.430;2023-05-09T01:47:06;15.50;99.90
35970;DHT22;22448;51.298;6.430;2023-05-09T01:49:35;15.60;99.90
35970;DHT22;22448;51.298;6.430;2023-05-09T01:52:07;15.50;99.90
35970;DHT22;22448;51.298;6.430;2023-05-09T01:54:36;15.60;99.90
35970;DHT22;22448;51.298;6.430;2023-05-09T01:57:07;15.50;99.90
35970;DHT22;22448;51.298;6.430;2023-05-09T01:59:39;15.50;99.90
35970;DHT22;22448;51.298;6.430;2023-05-09T02:02:06;15.50;99.90
35970;DHT22;22448;51.298;6.430;2023-05-09T02:04:34;15.50;99.90
35970;DHT22;22448;51.298;6.430;2023-05-09T02:07:03;15.60;99.90
35970;DHT22;22448;51.298;6.430;2023-05-09T02:09:31;15.50;99.90
35970;DHT22;22448;51.298;6.430;2023-05-09T02:11:58;15.50;99.90
35970;DHT22;22448;51.298;6.430;2023-05-09T02:14:26;15.50;99.90
35970;DHT22;22448;51.298;6.430;2023-05-09T02:16:53;15.50;99.90
35970;DHT22;22448;51.298;6.430;2023-05-09T02:19:20;15.50;99.90
35970;DHT22;22448;51.298;6.430;2023-05-09T02:21:47;15.50;99.90
35970;DHT22;22448;51.298;6.430;2023-05-09T02:24:14;15.50;99.90
35970;DHT22;22448;51.298;6.430;2023-05-09T02:26:41;15.50;99.90
35970;DHT22;22448;51.298;6.430;2023-05-09T02:29:09;15.50;99.90
35970;DHT22;22448;51.298;6.430;2023-05-09T02:31:39;15.40;99.90
35970;DHT22;22448;51.298;6.430;2023-05-09T02:34:07;15.40;99.90
35970;DHT22;22448;51.298;6.430;2023-05-09T02:36:35;15.40;99.90
35970;DHT22;22448;51.298;6.430;2023-05-09T02:39:03;15.40;99.90
35970;DHT22;22448;51.298;6.430;2023-05-09T02:41:30;15.40;99.90
35970;DHT22;22448;51.298;6.430;2023-05-09T02:43:57;15.40;99.90
35970;DHT22;22448;51.298;6.430;2023-05-09T02:46:24;15.40;99.90
35970;DHT22;22448;51.298;6.430;2023-05-09T02:48:52;15.30;99.90
35970;DHT22;22448;51.298;6.430;2023-05-09T02:51:19;15.30;99.90
35970;DHT22;22448;51.298;6.430;2023-05-09T02:53:46;15.30;99.90
35970;DHT22;22448;51.298;6.430;2023-05-09T02:56:13;15.30;99.90
35970;DHT22;22448;51.298;6.430;2023-05-09T02:58:40;15.30;99.90
35970;DHT22;22448;51.298;6.430;2023-05-09T03:01:07;15.30;99.90
35970;DHT22;22448;51.298;6.430;2023-05-09T03:03:33;15.30;99.90
35970;DHT22;22448;51.298;6.430;2023-05-09T03:06:03;15.30;99.90
35970;DHT22;22448;51.298;6.430;2023-05-09T03:08:30;15.30;99.90
35970;DHT22;22448;51.298;6.430;2023-05-09T03:10:57;15.30;99.90
35970;DHT22;22448;51.298;6.430;2023-05-09T03:13:24;15.30;99.90
35970;DHT22;22448;51.298;6.430;2023-05-09T03:15:51;15.30;99.90
35970;DHT22;22448;51.298;6.430;2023-05-09T03:18:18;15.30;99.90
35970;DHT22;22448;51.298;6.430;2023-05-09T03:20:45;15.20;99.90
35970;DHT22;22448;51.298;6.430;2023-05-09T03:23:12;15.30;99.90
35970;DHT22;22448;51.298;6.430;2023-05-09T03:25:39;15.20;99.90
35970;DHT22;22448;51.298;6.430;2023-05-09T03:28:06;15.20;99.90
35970;DHT22;22448;51.298;6.430;2023-05-09T03:30:33;15.20;99.90
35970;DHT22;22448;51.298;6.430;2023-05-09T03:33:00;15.20;99.90
35970;DHT22;22448;51.298;6.430;2023-05-09T03:35:28;15.20;99.90
35970;DHT22;22448;51.298;6.430;2023-05-09T03:37:55;15.20;99.90
35970;DHT22;22448;51.298;6.430;2023-05-09T03:40:22;15.20;99.90
35970;DHT22;22448;51.298;6.430;2023-05-09T03:42:56;15.10;99.90
35970;DHT22;22448;51.298;6.430;2023-05-09T03:45:23;15.10;99.90
35970;DHT22;22448;51.298;6.430;2023-05-09T03:47:50;15.10;99.90
35970;DHT22;22448;51.298;6.430;2023-05-09T03:50:17;15.10;99.90
35970;DHT22;22448;51.298;6.430;2023-05-09T03:52:45;15.10;99.90
35970;DHT22;22448;51.298;6.430;2023-05-09T03:55:15;15.10;99.90
35970;DHT22;22448;51.298;6.430;2023-05-09T03:57:42;15.10;99.90
35970;DHT22;22448;51.298;6.430;2023-05-09T04:00:10;15.00;99.90
35970;DHT22;22448;51.298;6.430;2023-05-09T04:02:48;15.10;99.90
35970;DHT22;22448;51.298;6.430;2023-05-09T04:05:24;15.10;99.90
35970;DHT22;22448;51.298;6.430;2023-05-09T04:07:53;15.00;99.90
35970;DHT22;22448;51.298;6.430;2023-05-09T04:10:20;15.10;99.90
35970;DHT22;22448;51.298;6.430;2023-05-09T04:12:47;15.00;99.90
35970;DHT22;22448;51.298;6.430;2023-05-09T04:15:16;15.00;99.90
35970;DHT22;22448;51.298;6.430;2023-05-09T04:17:43;15.00;99.90
35970;DHT22;22448;51.298;6.430;2023-05-09T04:20:10;15.00;99.90
35970;DHT22;22448;51.298;6.430;2023-05-09T04:22:38;14.90;99.90
35970;DHT22;22448;51.298;6.430;2023-05-09T04:25:06;15.00;99.90
35970;DHT22;22448;51.298;6.430;2023-05-09T04:27:34;15.00;99.90
35970;DHT22;22448;51.298;6.430;2023-05-09T04:30:01;15.00;99.90
35970;DHT22;22448;51.298;6.430;2023-05-09T04:32:29;14.90;99.90
35970;DHT22;22448;51.298;6.430;2023-05-09T04:34:56;15.00;99.90
35970;DHT22;22448;51.298;6.430;2023-05-09T04:37:28;14.90;99.90
35970;DHT22;22448;51.298;6.430;2023-05-09T04:39:59;15.00;99.90
35970;DHT22;22448;51.298;6.430;2023-05-09T04:42:35;15.00;99.90
35970;DHT22;22448;51.298;6.430;2023-05-09T04:45:04;15.00;99.90
35970;DHT22;22448;51.298;6.430;2023-05-09T04:47:31;15.00;99.90
35970;DHT22;22448;51.298;6.430;2023-05-09T04:49:58;15.10;99.90
35970;DHT22;22448;51.298;6.430;2023-05-09T04:52:25;15.10;99.90
35970;DHT22;22448;51.298;6.430;2023-05-09T04:54:52;15.10;99.90
35970;DHT22;22448;51.298;6.430;2023-05-09T04:57:21;15.10;99.90
35970;DHT22;22448;51.298;6.430;2023-05-09T04:59:53;15.10;99.90
35970;DHT22;22448;51.298;6.430;2023-05-09T05:02:20;15.10;99.90
35970;DHT22;22448;51.298;6.430;2023-05-09T05:04:50;15.10;99.90
35970;DHT22;22448;51.298;6.430;2023-05-09T05:07:26;15.10;99.90
35970;DHT22;22448;51.298;6.430;2023-05-09T05:09:53;15.10;99.90
35970;DHT22;22448;51.298;6.430;2023-05-09T05:12:21;15.10;99.90
35970;DHT22;22448;51.298;6.430;2023-05-09T05:14:48;15.10;99.90
35970;DHT22;22448;51.298;6.430;2023-05-09T05:17:18;15.10;99.90
35970;DHT22;22448;51.298;6.430;2023-05-09T05:19:45;15.20;99.90
35970;DHT22;22448;51.298;6.430;2023-05-09T05:22:13;15.20;99.90
35970;DHT22;22448;51.298;6.430;2023-05-09T05:24:42;15.20;99.90
35970;DHT22;22448;51.298;6.430;2023-05-09T05:27:10;15.30;99.90
35970;DHT22;22448;51.298;6.430;2023-05-09T05:29:37;15.50;99.90
35970;DHT22;22448;51.298;6.430;2023-05-09T05:32:04;15.50;99.90
35970;DHT22;22448;51.298;6.430;2023-05-09T05:34:32;15.70;99.90
35970;DHT22;22448;51.298;6.430;2023-05-09T05:36:59;15.80;99.90
35970;DHT22;22448;51.298;6.430;2023-05-09T05:39:26;15.80;99.90
35970;DHT22;22448;51.298;6.430;2023-05-09T05:41:53;15.80;99.90
35970;DHT22;22448;51.298;6.430;2023-05-09T05:44:20;15.90;99.90
35970;DHT22;22448;51.298;6.430;2023-05-09T05:46:48;15.90;99.90
35970;DHT22;22448;51.298;6.430;2023-05-09T05:49:15;15.90;99.90
35970;DHT22;22448;51.298;6.430;2023-05-09T05:51:42;16.00;99.90
35970;DHT22;22448;51.298;6.430;2023-05-09T05:54:10;15.90;99.90
35970;DHT22;22448;51.298;6.430;2023-05-09T05:56:37;16.00;99.90
35970;DHT22;22448;51.298;6.430;2023-05-09T05:59:04;16.10;99.90
35970;DHT22;22448;51.298;6.430;2023-05-09T06:01:31;16.00;99.90
35970;DHT22;22448;51.298;6.430;2023-05-09T06:03:58;16.00;99.90
35970;DHT22;22448;51.298;6.430;2023-05-09T06:06:29;16.00;99.90
35970;DHT22;22448;51.298;6.430;2023-05-09T06:08:56;15.90;99.90
35970;DHT22;22448;51.298;6.430;2023-05-09T06:11:23;15.90;99.90
35970;DHT22;22448;51.298;6.430;2023-05-09T06:13:51;15.80;99.90
35970;DHT22;22448;51.298;6.430;2023-05-09T06:16:18;15.80;99.90
35970;DHT22;22448;51.298;6.430;2023-05-09T06:18:48;15.70;99.90
35970;DHT22;22448;51.298;6.430;2023-05-09T06:21:16;15.70;99.90
35970;DHT22;22448;51.298;6.430;2023-05-09T06:23:43;15.80;99.90
35970;DHT22;22448;51.298;6.430;2023-05-09T06:26:31;15.70;99.90
35970;DHT22;22448;51.298;6.430;2023-05-09T06:28:58;15.80;99.90
35970;DHT22;22448;51.298;6.430;2023-05-09T06:31:25;15.80;99.90
35970;DHT22;22448;51.298;6.430;2023-05-09T06:33:52;15.80;99.90
35970;DHT22;22448;51.298;6.430;2023-05-09T06:36:19;15.90;99.90
35970;DHT22;22448;51.298;6.430;2023-05-09T06:38:46;15.90;99.90
35970;DHT22;22448;51.298;6.430;2023-05-09T06:41:13;15.90;99.90
35970;DHT22;22448;51.298;6.430;2023-05-09T06:43:40;15.90;99.90
35970;DHT22;22448;51.298;6.430;2023-05-09T06:46:07;16.00;99.90
35970;DHT22;22448;51.298;6.430;2023-05-09T06:48:34;16.10;99.90
35970;DHT22;22448;51.298;6.430;2023-05-09T06:51:01;16.20;99.90
35970;DHT22;22448;51.298;6.430;2023-05-09T06:53:28;16.40;99.90
35970;DHT22;22448;51.298;6.430;2023-05-09T06:55:55;16.60;99.90
35970;DHT22;22448;51.298;6.430;2023-05-09T06:58:23;16.70;99.90
35970;DHT22;22448;51.298;6.430;2023-05-09T07:00:50;16.90;99.90
35970;DHT22;22448;51.298;6.430;2023-05-09T07:03:17;17.10;99.90
35970;DHT22;22448;51.298;6.430;2023-05-09T07:05:44;17.40;99.90
35970;DHT22;22448;51.298;6.430;2023-05-09T07:08:11;17.60;99.90
35970;DHT22;22448;51.298;6.430;2023-05-09T07:10:38;17.80;99.90
35970;DHT22;22448;51.298;6.430;2023-05-09T07:13:05;18.00;99.90
35970;DHT22;22448;51.298;6.430;2023-05-09T07:15:32;18.20;99.90
35970;DHT22;22448;51.298;6.430;2023-05-09T07:18:07;18.30;99.90
35970;DHT22;22448;51.298;6.430;2023-05-09T07:20:34;18.50;99.90
35970;DHT22;22448;51.298;6.430;2023-05-09T07:23:03;18.50;99.90
35970;DHT22;22448;51.298;6.430;2023-05-09T07:25:30;18.40;99.90
35970;DHT22;22448;51.298;6.430;2023-05-09T07:27:57;18.50;99.90
35970;DHT22;22448;51.298;6.430;2023-05-09T07:30:24;18.80;99.90
35970;DHT22;22448;51.298;6.430;2023-05-09T07:32:52;19.00;99.90
35970;DHT22;22448;51.298;6.430;2023-05-09T07:35:19;19.30;99.90
35970;DHT22;22448;51.298;6.430;2023-05-09T07:37:46;20.10;99.90
35970;DHT22;22448;51.298;6.430;2023-05-09T07:40:13;20.80;99.90
35970;DHT22;22448;51.298;6.430;2023-05-09T07:42:41;22.10;99.90
35970;DHT22;22448;51.298;6.430;2023-05-09T07:45:15;23.30;99.90
35970;DHT22;22448;51.298;6.430;2023-05-09T07:47:44;24.40;99.90
35970;DHT22;22448;51.298;6.430;2023-05-09T07:50:11;24.60;99.90
35970;DHT22;22448;51.298;6.430;2023-05-09T07:52:38;25.20;99.90
35970;DHT22;22448;51.298;6.430;2023-05-09T07:55:05;25.30;99.90
35970;DHT22;22448;51.298;6.430;2023-05-09T07:57:32;25.30;99.90
35970;DHT22;22448;51.298;6.430;2023-05-09T07:59:59;25.10;99.90
35970;DHT22;22448;51.298;6.430;2023-05-09T08:02:26;24.60;99.90
35970;DHT22;22448;51.298;6.430;2023-05-09T08:04:53;23.50;99.90
35970;DHT22;22448;51.298;6.430;2023-05-09T08:07:20;23.30;99.90
35970;DHT22;22448;51.298;6.430;2023-05-09T08:09:47;23.40;99.90
35970;DHT22;22448;51.298;6.430;2023-05-09T08:12:14;23.70;99.90
35970;DHT22;22448;51.298;6.430;2023-05-09T08:14:41;24.00;99.90
35970;DHT22;22448;51.298;6.430;2023-05-09T08:17:08;23.80;99.90
35970;DHT22;22448;51.298;6.430;2023-05-09T08:19:35;24.00;99.90
35970;DHT22;22448;51.298;6.430;2023-05-09T08:22:02;23.80;99.90
35970;DHT22;22448;51.298;6.430;2023-05-09T08:24:30;23.40;99.90
35970;DHT22;22448;51.298;6.430;2023-05-09T08:26:58;23.00;99.90
35970;DHT22;22448;51.298;6.430;2023-05-09T08:29:25;22.90;99.90
35970;DHT22;22448;51.298;6.430;2023-05-09T08:31:52;22.90;99.90
35970;DHT22;22448;51.298;6.430;2023-05-09T08:34:19;22.80;99.90
35970;DHT22;22448;51.298;6.430;2023-05-09T08:36:46;22.90;99.90
35970;DHT22;22448;51.298;6.430;2023-05-09T08:39:14;22.70;99.90
35970;DHT22;22448;51.298;6.430;2023-05-09T08:41:41;22.70;99.90
35970;DHT22;22448;51.298;6.430;2023-05-09T08:44:09;22.40;99.90
35970;DHT22;22448;51.298;6.430;2023-05-09T08:46:41;22.40;99.90
35970;DHT22;22448;51.298;6.430;2023-05-09T08:49:10;22.50;99.90
35970;DHT22;22448;51.298;6.430;2023-05-09T08:51:38;22.60;99.90
35970;DHT22;22448;51.298;6.430;2023-05-09T08:54:05;22.80;99.90
35970;DHT22;22448;51.298;6.430;2023-05-09T08:56:34;22.80;99.90
35970;DHT22;22448;51.298;6.430;2023-05-09T08:59:01;22.80;99.90
35970;DHT22;22448;51.298;6.430;2023-05-09T09:01:29;22.70;99.90
35970;DHT22;22448;51.298;6.430;2023-05-09T09:03:59;22.70;99.90
35970;DHT22;22448;51.298;6.430;2023-05-09T09:06:27;22.60;99.90
35970;DHT22;22448;51.298;6.430;2023-05-09T09:08:56;22.80;99.90
35970;DHT22;22448;51.298;6.430;2023-05-09T09:11:24;22.80;99.90
35970;DHT22;22448;51.298;6.430;2023-05-09T09:13:52;22.70;99.90
35970;DHT22;22448;51.298;6.430;2023-05-09T09:16:21;22.70;99.90
35970;DHT22;22448;51.298;6.430;2023-05-09T09:18:51;22.50;99.90
35970;DHT22;22448;51.298;6.430;2023-05-09T09:21:19;22.30;99.90
35970;DHT22;22448;51.298;6.430;2023-05-09T09:23:46;22.10;99.90
35970;DHT22;22448;51.298;6.430;2023-05-09T09:26:15;22.00;99.90
35970;DHT22;22448;51.298;6.430;2023-05-09T09:28:42;22.00;99.90
35970;DHT22;22448;51.298;6.430;2023-05-09T09:31:23;22.10;99.90
35970;DHT22;22448;51.298;6.430;2023-05-09T09:33:50;21.90;99.90
35970;DHT22;22448;51.298;6.430;2023-05-09T09:36:30;21.80;99.90
35970;DHT22;22448;51.298;6.430;2023-05-09T09:39:03;21.70;99.90
35970;DHT22;22448;51.298;6.430;2023-05-09T09:49:18;22.40;99.90
35970;DHT22;22448;51.298;6.430;2023-05-09T09:52:04;22.30;99.90
35970;DHT22;22448;51.298;6.430;2023-05-09T09:54:31;22.00;99.90
35970;DHT22;22448;51.298;6.430;2023-05-09T09:56:59;21.80;99.90
35970;DHT22;22448;51.298;6.430;2023-05-09T09:59:26;21.60;99.90
35970;DHT22;22448;51.298;6.430;2023-05-09T10:04:23;21.10;99.90
35970;DHT22;22448;51.298;6.430;2023-05-09T10:06:55;21.10;99.90
35970;DHT22;22448;51.298;6.430;2023-05-09T10:09:24;21.40;99.90
35970;DHT22;22448;51.298;6.430;2023-05-09T10:11:51;21.70;99.90
35970;DHT22;22448;51.298;6.430;2023-05-09T10:14:21;21.80;99.90
35970;DHT22;22448;51.298;6.430;2023-05-09T10:16:50;21.90;99.90
35970;DHT22;22448;51.298;6.430;2023-05-09T10:19:19;21.80;99.90
35970;DHT22;22448;51.298;6.430;2023-05-09T10:22:05;21.70;99.90
35970;DHT22;22448;51.298;6.430;2023-05-09T10:24:39;21.50;99.90
35970;DHT22;22448;51.298;6.430;2023-05-09T10:27:10;21.40;99.90
35970;DHT22;22448;51.298;6.430;2023-05-09T10:29:44;21.40;99.90
35970;DHT22;22448;51.298;6.430;2023-05-09T10:32:22;21.50;99.90
35970;DHT22;22448;51.298;6.430;2023-05-09T10:34:53;21.70;99.90
35970;DHT22;22448;51.298;6.430;2023-05-09T10:37:24;21.90;99.90
35970;DHT22;22448;51.298;6.430;2023-05-09T10:39:51;22.10;99.90
35970;DHT22;22448;51.298;6.430;2023-05-09T10:42:19;22.20;99.90
35970;DHT22;22448;51.298;6.430;2023-05-09T10:44:49;22.30;99.90
35970;DHT22;22448;51.298;6.430;2023-05-09T10:47:17;22.30;99.90
35970;DHT22;22448;51.298;6.430;2023-05-09T10:49:45;22.20;99.90
35970;DHT22;22448;51.298;6.430;2023-05-09T10:52:13;22.10;99.90
35970;DHT22;22448;51.298;6.430;2023-05-09T10:54:40;21.90;99.90
35970;DHT22;22448;51.298;6.430;2023-05-09T10:57:10;21.60;99.90
35970;DHT22;22448;51.298;6.430;2023-05-09T10:59:41;21.30;99.90
35970;DHT22;22448;51.298;6.430;2023-05-09T11:02:13;21.10;99.90
35970;DHT22;22448;51.298;6.430;2023-05-09T11:04:41;20.80;99.90
35970;DHT22;22448;51.298;6.430;2023-05-09T11:07:23;20.60;99.90
35970;DHT22;22448;51.298;6.430;2023-05-09T11:10:15;20.50;99.90
35970;DHT22;22448;51.298;6.430;2023-05-09T11:12:57;20.40;99.90
35970;DHT22;22448;51.298;6.430;2023-05-09T11:15:25;20.50;99.90
35970;DHT22;22448;51.298;6.430;2023-05-09T11:18:08;20.60;99.90
35970;DHT22;22448;51.298;6.430;2023-05-09T11:20:42;20.80;99.90
35970;DHT22;22448;51.298;6.430;2023-05-09T11:23:09;20.90;99.90
35970;DHT22;22448;51.298;6.430;2023-05-09T11:25:38;21.00;99.90
35970;DHT22;22448;51.298;6.430;2023-05-09T11:28:05;21.00;99.90
35970;DHT22;22448;51.298;6.430;2023-05-09T11:30:42;21.10;99.90
35970;DHT22;22448;51.298;6.430;2023-05-09T11:33:23;21.20;99.90
35970;DHT22;22448;51.298;6.430;2023-05-09T11:36:19;21.30;99.90
35970;DHT22;22448;51.298;6.430;2023-05-09T11:38:47;21.40;99.90
35970;DHT22;22448;51.298;6.430;2023-05-09T11:41:14;21.40;99.90
35970;DHT22;22448;51.298;6.430;2023-05-09T11:43:42;21.50;99.90
35970;DHT22;22448;51.298;6.430;2023-05-09T11:46:12;21.60;99.90
35970;DHT22;22448;51.298;6.430;2023-05-09T11:48:39;21.70;99.90
35970;DHT22;22448;51.298;6.430;2023-05-09T11:51:18;21.80;99.90
35970;DHT22;22448;51.298;6.430;2023-05-09T11:53:48;21.90;99.90
35970;DHT22;22448;51.298;6.430;2023-05-09T11:56:15;21.90;99.90
35970;DHT22;22448;51.298;6.430;2023-05-09T11:58:43;21.60;99.90
35970;DHT22;22448;51.298;6.430;2023-05-09T12:01:10;21.30;99.90
35970;DHT22;22448;51.298;6.430;2023-05-09T12:03:43;21.10;99.90
35970;DHT22;22448;51.298;6.430;2023-05-09T12:06:15;20.80;99.90
35970;DHT22;22448;51.298;6.430;2023-05-09T12:08:44;20.50;99.90
35970;DHT22;22448;51.298;6.430;2023-05-09T12:11:13;20.10;99.90
35970;DHT22;22448;51.298;6.430;2023-05-09T12:13:45;19.80;99.90
35970;DHT22;22448;51.298;6.430;2023-05-09T12:16:12;19.40;99.90
35970;DHT22;22448;51.298;6.430;2023-05-09T12:18:51;18.90;99.90
35970;DHT22;22448;51.298;6.430;2023-05-09T12:21:19;18.50;99.90
35970;DHT22;22448;51.298;6.430;2023-05-09T12:23:46;18.10;99.90
35970;DHT22;22448;51.298;6.430;2023-05-09T12:26:17;17.90;99.90
35970;DHT22;22448;51.298;6.430;2023-05-09T12:28:44;17.70;99.90
35970;DHT22;22448;51.298;6.430;2023-05-09T12:31:11;17.70;99.90
35970;DHT22;22448;51.298;6.430;2023-05-09T12:33:39;17.70;99.90
35970;DHT22;22448;51.298;6.430;2023-05-09T12:36:09;17.80;99.90
35970;DHT22;22448;51.298;6.430;2023-05-09T12:38:37;17.90;99.90
35970;DHT22;22448;51.298;6.430;2023-05-09T12:41:06;18.00;99.90
35970;DHT22;22448;51.298;6.430;2023-05-09T12:43:48;18.00;99.90
35970;DHT22;22448;51.298;6.430;2023-05-09T12:46:17;17.90;99.90
35970;DHT22;22448;51.298;6.430;2023-05-09T12:48:45;18.00;99.90
35970;DHT22;22448;51.298;6.430;2023-05-09T12:51:19;17.90;99.90
35970;DHT22;22448;51.298;6.430;2023-05-09T12:53:47;17.90;99.90
35970;DHT22;22448;51.298;6.430;2023-05-09T12:56:19;17.90;99.90
35970;DHT22;22448;51.298;6.430;2023-05-09T12:58:49;17.90;99.90
35970;DHT22;22448;51.298;6.430;2023-05-09T13:01:18;17.90;99.90
35970;DHT22;22448;51.298;6.430;2023-05-09T13:04:00;18.00;99.90
35970;DHT22;22448;51.298;6.430;2023-05-09T13:06:27;18.00;99.90
35970;DHT22;22448;51.298;6.430;2023-05-09T13:09:02;18.00;99.90
35970;DHT22;22448;51.298;6.430;2023-05-09T13:11:32;18.10;99.90
35970;DHT22;22448;51.298;6.430;2023-05-09T13:14:05;18.20;99.90
35970;DHT22;22448;51.298;6.430;2023-05-09T13:16:33;18.20;99.90
35970;DHT22;22448;51.298;6.430;2023-05-09T13:19:00;18.20;99.90
35970;DHT22;22448;51.298;6.430;2023-05-09T13:21:27;18.20;99.90
35970;DHT22;22448;51.298;6.430;2023-05-09T13:23:54;18.20;99.90
35970;DHT22;22448;51.298;6.430;2023-05-09T13:26:21;18.30;99.90
35970;DHT22;22448;51.298;6.430;2023-05-09T13:28:48;18.30;99.90
35970;DHT22;22448;51.298;6.430;2023-05-09T13:31:16;18.20;99.90
35970;DHT22;22448;51.298;6.430;2023-05-09T13:33:43;18.20;99.90
35970;DHT22;22448;51.298;6.430;2023-05-09T13:36:13;18.10;99.90
35970;DHT22;22448;51.298;6.430;2023-05-09T13:38:41;18.10;99.90
35970;DHT22;22448;51.298;6.430;2023-05-09T13:41:08;18.00;99.90
35970;DHT22;22448;51.298;6.430;2023-05-09T13:43:37;17.90;99.90
35970;DHT22;22448;51.298;6.430;2023-05-09T13:46:04;17.90;99.90
35970;DHT22;22448;51.298;6.430;2023-05-09T13:48:32;17.80;99.90
35970;DHT22;22448;51.298;6.430;2023-05-09T13:50:59;17.80;99.90
35970;DHT22;22448;51.298;6.430;2023-05-09T13:53:26;17.80;99.90
35970;DHT22;22448;51.298;6.430;2023-05-09T13:55:53;17.70;99.90
35970;DHT22;22448;51.298;6.430;2023-05-09T13:58:20;17.80;99.90
35970;DHT22;22448;51.298;6.430;2023-05-09T14:00:48;17.70;99.90
35970;DHT22;22448;51.298;6.430;2023-05-09T14:03:16;17.70;99.90
35970;DHT22;22448;51.298;6.430;2023-05-09T14:05:43;17.70;99.90
35970;DHT22;22448;51.298;6.430;2023-05-09T14:08:10;17.60;99.90
35970;DHT22;22448;51.298;6.430;2023-05-09T14:10:37;17.60;99.90
35970;DHT22;22448;51.298;6.430;2023-05-09T14:13:04;17.50;99.90
35970;DHT22;22448;51.298;6.430;2023-05-09T14:15:31;17.50;99.90
35970;DHT22;22448;51.298;6.430;2023-05-09T14:17:57;17.40;99.90
35970;DHT22;22448;51.298;6.430;2023-05-09T14:20:24;17.50;99.90
35970;DHT22;22448;51.298;6.430;2023-05-09T14:22:51;17.40;99.90
35970;DHT22;22448;51.298;6.430;2023-05-09T14:25:20;17.50;99.90
35970;DHT22;22448;51.298;6.430;2023-05-09T14:27:48;17.50;99.90
35970;DHT22;22448;51.298;6.430;2023-05-09T14:30:15;17.50;99.90
35970;DHT22;22448;51.298;6.430;2023-05-09T14:32:42;17.60;99.90
35970;DHT22;22448;51.298;6.430;2023-05-09T14:35:09;17.60;99.90
35970;DHT22;22448;51.298;6.430;2023-05-09T14:37:36;17.50;99.90
35970;DHT22;22448;51.298;6.430;2023-05-09T14:40:04;17.50;99.90
35970;DHT22;22448;51.298;6.430;2023-05-09T14:42:31;17.30;99.90
35970;DHT22;22448;51.298;6.430;2023-05-09T14:44:58;17.20;99.90
35970;DHT22;22448;51.298;6.430;2023-05-09T14:47:25;17.20;99.90
35970;DHT22;22448;51.298;6.430;2023-05-09T14:49:52;17.20;99.90
35970;DHT22;22448;51.298;6.430;2023-05-09T14:52:19;17.10;99.90
35970;DHT22;22448;51.298;6.430;2023-05-09T14:54:46;17.10;99.90
35970;DHT22;22448;51.298;6.430;2023-05-09T14:57:13;17.00;99.90
35970;DHT22;22448;51.298;6.430;2023-05-09T14:59:40;17.00;99.90
35970;DHT22;22448;51.298;6.430;2023-05-09T15:02:07;17.00;99.90
35970;DHT22;22448;51.298;6.430;2023-05-09T15:04:35;16.90;99.90
35970;DHT22;22448;51.298;6.430;2023-05-09T15:07:01;16.80;99.90
35970;DHT22;22448;51.298;6.430;2023-05-09T15:09:28;16.80;99.90
35970;DHT22;22448;51.298;6.430;2023-05-09T15:11:55;16.80;99.90
35970;DHT22;22448;51.298;6.430;2023-05-09T15:14:22;16.80;99.90
35970;DHT22;22448;51.298;6.430;2023-05-09T15:16:49;16.70;99.90
35970;DHT22;22448;51.298;6.430;2023-05-09T15:19:18;16.60;99.90
35970;DHT22;22448;51.298;6.430;2023-05-09T15:21:45;16.60;99.90
35970;DHT22;22448;51.298;6.430;2023-05-09T15:24:13;16.50;99.90
35970;DHT22;22448;51.298;6.430;2023-05-09T15:26:40;16.40;99.90
35970;DHT22;22448;51.298;6.430;2023-05-09T15:29:07;16.30;99.90
35970;DHT22;22448;51.298;6.430;2023-05-09T15:31:34;16.30;99.90
35970;DHT22;22448;51.298;6.430;2023-05-09T15:34:01;16.20;99.90
35970;DHT22;22448;51.298;6.430;2023-05-09T15:36:29;16.20;99.90
35970;DHT22;22448;51.298;6.430;2023-05-09T15:38:56;16.10;99.90
35970;DHT22;22448;51.298;6.430;2023-05-09T15:41:23;16.10;99.90
35970;DHT22;22448;51.298;6.430;2023-05-09T15:43:50;16.10;99.90
35970;DHT22;22448;51.298;6.430;2023-05-09T15:46:17;16.10;99.90
35970;DHT22;22448;51.298;6.430;2023-05-09T15:48:45;16.10;99.90
35970;DHT22;22448;51.298;6.430;2023-05-09T15:51:12;16.10;99.90
35970;DHT22;22448;51.298;6.430;2023-05-09T15:53:39;16.10;99.90
35970;DHT22;22448;51.298;6.430;2023-05-09T15:56:07;16.00;99.90
35970;DHT22;22448;51.298;6.430;2023-05-09T15:58:34;16.00;99.90